createdAt,value
2022-09-23T00:00:50.512Z,94.99
2022-09-23T00:03:20.732Z,94.92
2022-09-23T00:05:59.069Z,94.86
2022-09-23T00:08:27.210Z,94.86
2022-09-23T00:10:57.175Z,94.82
2022-09-23T00:13:25.912Z,94.78
2022-09-23T00:15:53.935Z,94.65
2022-09-23T00:18:22.013Z,94.68
2022-09-23T00:20:50.121Z,94.71
2022-09-23T00:23:18.048Z,94.74
2022-09-23T00:25:46.068Z,94.77
2022-09-23T00:28:15.449Z,94.81
2022-09-23T00:30:44.779Z,94.75
2022-09-23T00:33:12.835Z,94.77
2022-09-23T00:35:40.848Z,94.81
2022-09-23T00:38:09.039Z,94.76
2022-09-23T00:40:37.260Z,94.85
2022-09-23T00:43:05.379Z,94.91
2022-09-23T00:45:35.101Z,94.98
2022-09-23T00:48:05.098Z,95.06
2022-09-23T00:50:36.099Z,94.98
2022-09-23T00:53:06.861Z,94.92
2022-09-23T00:55:40.530Z,94.96
2022-09-23T00:58:09.536Z,95.03
2022-09-23T01:00:39.023Z,94.98
2022-09-23T01:03:07.746Z,94.94
2022-09-23T01:05:36.405Z,94.95
2022-09-23T01:08:05.710Z,95.00
2022-09-23T01:10:38.185Z,95.01
2022-09-23T01:13:16.638Z,95.03
2022-09-23T01:15:50.417Z,95.01
2022-09-23T01:18:26.654Z,95.21
2022-09-23T01:21:01.585Z,95.26
2022-09-23T01:23:48.442Z,95.29
2022-09-23T01:26:30.187Z,95.34
2022-09-23T01:29:15.586Z,95.38
2022-09-23T01:31:49.807Z,95.31
2022-09-23T01:34:24.247Z,95.33
2022-09-23T01:36:56.271Z,95.37
2022-09-23T01:39:28.521Z,95.36
2022-09-23T01:42:01.660Z,95.34
2022-09-23T01:44:31.809Z,95.43
2022-09-23T01:47:04.202Z,95.52
2022-09-23T01:49:33.830Z,95.54
2022-09-23T01:52:07.183Z,95.61
2022-09-23T01:54:39.328Z,95.68
2022-09-23T01:57:11.074Z,95.68
2022-09-23T01:59:40.709Z,95.71
2022-09-23T02:02:15.250Z,95.73
2022-09-23T02:04:47.229Z,95.71
2022-09-23T02:07:20.294Z,95.68
2022-09-23T02:09:53.756Z,95.60
2022-09-23T02:12:23.176Z,95.62
2022-09-23T02:14:54.505Z,95.63
2022-09-23T02:17:27.475Z,95.62
2022-09-23T02:19:58.098Z,95.49
2022-09-23T02:22:29.405Z,95.57
2022-09-23T02:24:58.369Z,95.65
2022-09-23T02:27:31.307Z,95.60
2022-09-23T02:30:08.907Z,95.56
2022-09-23T02:32:44.708Z,95.59
2022-09-23T02:35:18.314Z,95.60
2022-09-23T02:37:50.297Z,95.57
2022-09-23T02:40:23.685Z,95.58
2022-09-23T02:43:01.729Z,95.58
2022-09-23T02:45:29.982Z,95.58
2022-09-23T02:48:03.688Z,95.62
2022-09-23T02:50:32.679Z,95.68
2022-09-23T02:53:01.347Z,95.57
2022-09-23T02:55:31.361Z,95.59
2022-09-23T02:58:01.517Z,95.61
2022-09-23T03:00:37.241Z,95.64
2022-09-23T03:03:19.770Z,95.71
2022-09-23T03:05:50.071Z,95.82
2022-09-23T03:08:29.604Z,95.77
2022-09-23T03:11:06.389Z,95.74
2022-09-23T03:13:42.601Z,95.75
2022-09-23T03:16:15.919Z,95.74
2022-09-23T03:18:49.046Z,95.80
2022-09-23T03:21:20.998Z,95.81
2022-09-23T03:23:49.588Z,95.84
2022-09-23T03:26:20.347Z,95.75
2022-09-23T03:28:50.481Z,95.74
2022-09-23T03:31:18.816Z,95.86
2022-09-23T03:33:51.683Z,95.86
2022-09-23T03:36:41.325Z,95.85
2022-09-23T03:39:11.788Z,95.78
2022-09-23T03:41:43.994Z,95.77
2022-09-23T03:44:13.000Z,95.74
2022-09-23T03:46:49.541Z,95.83
2022-09-23T03:49:20.300Z,95.82
2022-09-23T03:51:48.372Z,95.80
2022-09-23T03:54:16.412Z,95.70
2022-09-23T03:56:44.514Z,95.73
2022-09-23T03:59:14.652Z,95.76
2022-09-23T04:01:42.795Z,95.73
2022-09-23T04:04:10.872Z,95.76
2022-09-23T04:06:40.253Z,95.83
2022-09-23T04:09:08.227Z,95.77
2022-09-23T04:11:36.394Z,95.83
2022-09-23T04:14:04.878Z,95.88
2022-09-23T04:16:33.069Z,95.86
2022-09-23T04:19:01.126Z,95.85
2022-09-23T04:21:31.558Z,95.88
2022-09-23T04:24:00.866Z,95.90
2022-09-23T04:26:29.122Z,95.91
2022-09-23T04:28:57.257Z,95.94
2022-09-23T04:31:25.568Z,95.97
2022-09-23T04:33:54.162Z,95.99
2022-09-23T04:36:23.274Z,96.01
2022-09-23T04:38:51.447Z,96.01
2022-09-23T04:41:21.088Z,96.03
2022-09-23T04:43:49.233Z,96.03
2022-09-23T04:46:17.549Z,96.04
2022-09-23T04:48:45.669Z,96.00
2022-09-23T04:51:14.891Z,95.98
2022-09-23T04:53:43.927Z,96.03
2022-09-23T04:56:13.765Z,96.16
2022-09-23T04:58:43.278Z,96.16
2022-09-23T05:01:12.797Z,96.14
2022-09-23T05:03:41.404Z,96.12
2022-09-23T05:06:09.853Z,96.15
2022-09-23T05:08:37.834Z,96.19
2022-09-23T05:11:06.103Z,96.26
2022-09-23T05:13:35.309Z,96.37
2022-09-23T05:16:06.699Z,96.40
2022-09-23T05:18:35.561Z,96.47
2022-09-23T05:21:04.465Z,96.48
2022-09-23T05:23:32.605Z,96.44
2022-09-23T05:26:02.608Z,96.45
2022-09-23T05:28:33.066Z,96.49
2022-09-23T05:31:06.272Z,96.44
2022-09-23T05:33:34.743Z,96.33
2022-09-23T05:36:03.445Z,96.19
2022-09-23T05:38:32.182Z,96.16
2022-09-23T05:41:01.490Z,95.97
2022-09-23T05:43:29.756Z,95.61
2022-09-23T05:46:07.814Z,95.41
2022-09-23T05:48:38.399Z,95.25
2022-09-23T05:51:09.163Z,95.10
2022-09-23T05:53:38.140Z,94.28
2022-09-23T05:56:06.636Z,93.12
2022-09-23T05:58:34.698Z,92.56
2022-09-23T06:01:02.733Z,92.26
2022-09-23T06:03:31.029Z,91.75
2022-09-23T06:06:00.410Z,91.34
2022-09-23T06:08:28.435Z,90.44
2022-09-23T06:10:56.529Z,89.89
2022-09-23T06:13:24.487Z,89.35
2022-09-23T06:15:52.646Z,87.66
2022-09-23T06:18:20.912Z,86.08
2022-09-23T06:20:48.987Z,84.95
2022-09-23T06:23:18.627Z,83.86
2022-09-23T06:25:47.023Z,82.93
2022-09-23T06:28:15.271Z,81.70
2022-09-23T06:30:43.464Z,80.39
2022-09-23T06:33:11.410Z,79.05
2022-09-23T06:35:39.545Z,77.91
2022-09-23T06:38:07.672Z,76.88
2022-09-23T06:40:37.368Z,75.58
2022-09-23T06:43:05.505Z,74.43
2022-09-23T06:45:33.495Z,73.12
2022-09-23T06:48:08.577Z,71.50
2022-09-23T06:50:36.959Z,70.37
2022-09-23T06:53:05.390Z,68.42
2022-09-23T06:55:33.467Z,67.37
2022-09-23T06:58:02.750Z,66.77
2022-09-23T07:00:30.907Z,66.74
2022-09-23T07:02:59.139Z,65.73
2022-09-23T07:05:27.262Z,65.89
2022-09-23T07:07:55.214Z,65.56
2022-09-23T07:10:23.245Z,65.55
2022-09-23T07:12:51.567Z,64.57
2022-09-23T07:15:20.835Z,63.48
2022-09-23T07:17:49.400Z,63.47
2022-09-23T07:20:17.975Z,63.01
2022-09-23T07:22:50.268Z,62.62
2022-09-23T07:25:18.621Z,62.81
2022-09-23T07:27:47.414Z,62.18
2022-09-23T07:30:23.442Z,62.00
2022-09-23T07:32:54.554Z,61.27
2022-09-23T07:35:22.715Z,61.08
2022-09-23T07:37:51.393Z,60.54
2022-09-23T07:40:19.974Z,60.95
2022-09-23T07:42:47.988Z,61.45
2022-09-23T07:45:16.135Z,60.94
2022-09-23T07:47:44.275Z,60.44
2022-09-23T07:50:13.993Z,60.77
2022-09-23T07:52:52.943Z,60.93
2022-09-23T07:55:21.507Z,60.98
2022-09-23T07:57:49.562Z,60.76
2022-09-23T08:00:18.528Z,61.17
2022-09-23T08:02:49.572Z,61.20
2022-09-23T08:05:22.693Z,60.52
2022-09-23T08:07:50.823Z,59.57
2022-09-23T08:10:21.176Z,58.50
2022-09-23T08:12:49.368Z,57.47
2022-09-23T08:15:18.077Z,57.30
2022-09-23T08:17:46.235Z,57.74
2022-09-23T08:20:34.473Z,57.91
2022-09-23T08:23:03.738Z,57.84
2022-09-23T08:25:34.750Z,57.16
2022-09-23T08:28:04.284Z,58.38
2022-09-23T08:30:32.368Z,59.33
2022-09-23T08:33:00.670Z,58.50
2022-09-23T08:35:28.633Z,58.97
2022-09-23T08:37:56.733Z,58.53
2022-09-23T08:40:26.167Z,59.14
2022-09-23T08:42:54.301Z,57.11
2022-09-23T08:45:24.628Z,56.93
2022-09-23T08:47:56.339Z,58.22
2022-09-23T08:50:26.512Z,58.16
2022-09-23T08:52:56.948Z,56.70
2022-09-23T08:55:33.171Z,56.73
2022-09-23T08:58:26.170Z,56.38
2022-09-23T09:01:01.643Z,54.84
2022-09-23T09:03:35.513Z,56.03
2022-09-23T09:06:04.237Z,55.66
2022-09-23T09:08:34.260Z,55.56
2022-09-23T09:11:04.400Z,54.59
2022-09-23T09:13:34.415Z,55.20
2022-09-23T09:16:16.135Z,55.36
2022-09-23T09:18:51.910Z,55.45
2022-09-23T09:21:26.922Z,53.86
2022-09-23T09:23:56.594Z,54.63
2022-09-23T09:26:27.889Z,54.90
2022-09-23T09:29:11.398Z,53.63
2022-09-23T09:31:49.062Z,54.31
2022-09-23T09:34:26.367Z,52.16
2022-09-23T09:37:06.223Z,52.59
2022-09-23T09:39:36.346Z,52.93
2022-09-23T09:42:07.550Z,53.39
2022-09-23T09:44:40.274Z,52.59
2022-09-23T09:47:29.701Z,53.87
2022-09-23T09:50:03.943Z,55.63
2022-09-23T09:52:32.334Z,54.31
2022-09-23T09:55:23.586Z,54.43
2022-09-23T09:57:58.150Z,52.82
2022-09-23T10:00:37.254Z,52.47
2022-09-23T10:03:15.618Z,50.58
2022-09-23T10:05:49.157Z,49.20
2022-09-23T10:08:24.490Z,48.79
2022-09-23T10:10:54.977Z,49.29
2022-09-23T10:13:25.136Z,49.41
2022-09-23T10:15:54.790Z,48.85
2022-09-23T10:18:29.867Z,48.68
2022-09-23T10:21:03.115Z,47.16
2022-09-23T10:26:30.046Z,48.02
2022-09-23T10:29:00.092Z,49.20
2022-09-23T10:31:29.319Z,47.01
2022-09-23T10:34:00.815Z,47.67
2022-09-23T10:36:30.377Z,47.96
2022-09-23T10:39:19.560Z,46.15
2022-09-23T10:42:14.469Z,48.13
2022-09-23T10:45:12.462Z,48.41
2022-09-23T10:47:45.070Z,47.32
2022-09-23T10:50:23.211Z,48.40
2022-09-23T10:52:59.420Z,48.21
2022-09-23T10:55:35.015Z,47.61
2022-09-23T10:58:21.917Z,48.79
2022-09-23T11:01:00.024Z,47.16
2022-09-23T11:03:52.266Z,46.24
2022-09-23T11:06:25.007Z,46.21
2022-09-23T11:09:05.287Z,45.46
2022-09-23T11:11:41.428Z,46.73
2022-09-23T11:14:20.448Z,46.51
2022-09-23T11:17:14.783Z,47.91
2022-09-23T11:20:00.557Z,47.78
2022-09-23T11:22:37.978Z,46.69
2022-09-23T11:25:17.670Z,47.72
2022-09-23T11:28:01.560Z,47.92
2022-09-23T11:30:33.730Z,47.34
2022-09-23T11:33:25.354Z,46.02
2022-09-23T11:35:57.761Z,47.87
2022-09-23T11:38:29.423Z,49.45
2022-09-23T11:41:00.819Z,48.67
2022-09-23T11:43:31.599Z,47.43
2022-09-23T11:46:02.178Z,46.69
2022-09-23T11:48:36.491Z,46.51
2022-09-23T11:51:08.042Z,46.19
2022-09-23T11:53:40.174Z,44.88
2022-09-23T11:56:12.194Z,45.48
2022-09-23T11:58:48.134Z,45.81
2022-09-23T12:01:35.778Z,45.87
2022-09-23T12:04:19.239Z,45.36
2022-09-23T12:06:51.013Z,45.65
2022-09-23T12:09:40.927Z,44.94
2022-09-23T12:12:15.035Z,44.43
2022-09-23T12:14:52.225Z,44.49
2022-09-23T12:17:43.180Z,45.21
2022-09-23T12:20:32.209Z,46.55
2022-09-23T12:23:09.696Z,46.46
2022-09-23T12:25:46.481Z,45.73
2022-09-23T12:28:18.367Z,46.58
2022-09-23T12:30:47.672Z,46.98
2022-09-23T12:33:22.451Z,47.52
2022-09-23T12:35:54.232Z,47.48
2022-09-23T12:38:25.206Z,46.29
2022-09-23T12:40:55.068Z,47.00
2022-09-23T12:43:30.403Z,47.05
2022-09-23T12:46:21.138Z,46.51
2022-09-23T12:49:01.093Z,45.63
2022-09-23T12:51:31.291Z,45.12
2022-09-23T12:54:24.225Z,45.70
2022-09-23T12:57:00.343Z,46.82
2022-09-23T12:59:31.483Z,46.57
2022-09-23T13:02:19.169Z,47.24
2022-09-23T13:05:14.507Z,47.34
2022-09-23T13:07:46.539Z,46.77
2022-09-23T13:10:18.530Z,46.01
2022-09-23T13:12:46.916Z,46.18
2022-09-23T13:15:19.241Z,47.01
2022-09-23T13:17:47.112Z,48.47
2022-09-23T13:20:34.762Z,47.78
2022-09-23T13:23:24.520Z,48.49
2022-09-23T13:25:54.251Z,47.60
2022-09-23T13:28:31.676Z,47.03
2022-09-23T13:31:01.577Z,47.37
2022-09-23T13:33:34.213Z,47.45
2022-09-23T13:36:04.345Z,46.19
2022-09-23T13:38:34.015Z,46.71
2022-09-23T13:41:06.064Z,46.48
2022-09-23T13:43:41.532Z,47.46
2022-09-23T13:46:13.243Z,47.70
2022-09-23T13:48:42.304Z,47.48
2022-09-23T13:51:11.726Z,47.97
2022-09-23T13:53:40.981Z,47.16
2022-09-23T13:56:14.911Z,49.35
2022-09-23T13:58:43.378Z,49.34
2022-09-23T14:01:22.647Z,48.67
2022-09-23T14:03:52.576Z,50.28
2022-09-23T14:06:20.570Z,49.47
2022-09-23T14:08:51.266Z,49.68
2022-09-23T14:11:20.827Z,49.71
2022-09-23T14:13:54.901Z,49.82
2022-09-23T14:16:25.162Z,48.91
2022-09-23T14:18:56.810Z,49.56
2022-09-23T14:21:33.883Z,49.02
2022-09-23T14:24:14.234Z,49.18
2022-09-23T14:26:43.958Z,49.53
2022-09-23T14:29:15.093Z,49.41
2022-09-23T14:31:57.702Z,51.15
2022-09-23T14:34:46.630Z,51.40
2022-09-23T14:37:40.513Z,51.37
2022-09-23T14:40:14.510Z,49.80
2022-09-23T14:42:44.454Z,50.41
2022-09-23T14:45:15.593Z,50.63
2022-09-23T14:47:46.148Z,51.82
2022-09-23T14:50:40.562Z,50.44
2022-09-23T14:56:28.411Z,51.78
2022-09-23T14:58:57.966Z,51.94
2022-09-23T15:01:34.493Z,51.49
2022-09-23T15:04:15.462Z,51.39
2022-09-23T15:06:47.014Z,52.57
2022-09-23T15:09:20.967Z,51.74
2022-09-23T15:11:52.624Z,51.71
2022-09-23T15:14:37.148Z,52.52
2022-09-23T15:17:12.595Z,51.93
2022-09-23T15:19:40.660Z,52.22
2022-09-23T15:22:09.137Z,51.99
2022-09-23T15:24:39.990Z,52.12
2022-09-23T15:27:26.856Z,52.42
2022-09-23T15:29:56.298Z,52.77
2022-09-23T15:32:24.805Z,52.40
2022-09-23T15:34:53.968Z,52.51
2022-09-23T15:37:21.962Z,53.19
2022-09-23T15:39:49.922Z,53.26
2022-09-23T15:42:19.258Z,54.32
2022-09-23T15:44:47.304Z,53.92
2022-09-23T15:47:18.765Z,53.77
2022-09-23T15:49:48.003Z,53.25
2022-09-23T15:52:17.596Z,53.79
2022-09-23T15:54:46.087Z,53.26
2022-09-23T15:57:14.025Z,54.01
2022-09-23T15:59:43.996Z,54.07
2022-09-23T16:02:18.855Z,53.35
2022-09-23T16:04:52.571Z,54.19
2022-09-23T16:07:21.331Z,54.56
2022-09-23T16:09:49.231Z,54.09
2022-09-23T16:12:17.766Z,53.61
2022-09-23T16:14:47.242Z,53.70
2022-09-23T16:17:15.255Z,54.06
2022-09-23T16:19:43.869Z,54.44
2022-09-23T16:22:15.105Z,55.27
2022-09-23T16:24:43.236Z,56.31
2022-09-23T16:27:13.745Z,56.48
2022-09-23T16:29:42.040Z,57.14
2022-09-23T16:32:11.303Z,57.04
2022-09-23T16:34:39.290Z,57.78
2022-09-23T16:37:07.302Z,58.79
2022-09-23T16:39:35.329Z,58.64
2022-09-23T16:42:03.399Z,58.73
2022-09-23T16:44:33.125Z,58.94
2022-09-23T16:47:01.148Z,59.36
2022-09-23T16:49:30.427Z,59.63
2022-09-23T16:51:58.376Z,59.59
2022-09-23T16:54:26.401Z,60.45
2022-09-23T16:56:55.066Z,60.88
2022-09-23T16:59:23.024Z,61.27
2022-09-23T17:02:09.018Z,61.97
2022-09-23T17:04:39.362Z,62.73
2022-09-23T17:07:07.353Z,62.95
2022-09-23T17:09:35.354Z,63.39
2022-09-23T17:12:07.681Z,63.83
2022-09-23T17:14:35.730Z,64.24
2022-09-23T17:17:03.721Z,64.71
2022-09-23T17:19:33.822Z,65.13
2022-09-23T17:22:03.173Z,65.53
2022-09-23T17:24:31.190Z,66.24
2022-09-23T17:26:59.168Z,66.45
2022-09-23T17:29:29.062Z,66.67
2022-09-23T17:31:57.073Z,67.11
2022-09-23T17:34:27.100Z,67.30
2022-09-23T17:36:55.561Z,67.71
2022-09-23T17:39:24.903Z,67.77
2022-09-23T17:41:58.471Z,68.11
2022-09-23T17:44:26.537Z,68.20
2022-09-23T17:46:54.888Z,68.11
2022-09-23T17:49:24.241Z,68.45
2022-09-23T17:51:52.850Z,68.53
2022-09-23T17:54:20.817Z,69.10
2022-09-23T17:56:50.111Z,69.27
2022-09-23T17:59:18.183Z,69.77
2022-09-23T18:01:47.010Z,69.20
2022-09-23T18:04:15.829Z,69.02
2022-09-23T18:06:43.945Z,68.99
2022-09-23T18:09:12.105Z,68.64
2022-09-23T18:11:41.241Z,69.09
2022-09-23T18:14:15.339Z,68.79
2022-09-23T18:16:45.335Z,68.45
2022-09-23T18:19:14.649Z,68.64
2022-09-23T18:21:44.192Z,68.72
2022-09-23T18:27:00.727Z,69.13
2022-09-23T18:29:30.323Z,69.23
2022-09-23T18:31:59.438Z,69.40
2022-09-23T18:34:28.521Z,70.11
2022-09-23T18:36:56.604Z,70.18
2022-09-23T18:39:25.079Z,70.40
2022-09-23T18:41:53.194Z,70.55
2022-09-23T18:44:21.294Z,70.82
2022-09-23T18:46:50.620Z,71.14
2022-09-23T18:49:36.390Z,71.29
2022-09-23T18:52:04.412Z,71.52
2022-09-23T18:54:32.446Z,71.81
2022-09-23T18:57:00.546Z,72.21
2022-09-23T18:59:30.195Z,72.81
2022-09-23T19:02:00.038Z,73.01
2022-09-23T19:04:29.226Z,73.28
2022-09-23T19:06:57.919Z,73.68
2022-09-23T19:09:26.251Z,74.03
2022-09-23T19:11:54.248Z,74.30
2022-09-23T19:14:22.334Z,74.09
2022-09-23T19:16:50.761Z,74.42
2022-09-23T19:19:21.094Z,74.48
2022-09-23T19:21:49.148Z,74.50
2022-09-23T19:24:19.927Z,74.78
2022-09-23T19:26:48.440Z,75.22
2022-09-23T19:29:19.422Z,75.34
2022-09-23T19:31:47.672Z,75.53
2022-09-23T19:34:17.647Z,75.58
2022-09-23T19:36:48.384Z,75.77
2022-09-23T19:39:18.448Z,76.03
2022-09-23T19:41:47.263Z,76.16
2022-09-23T19:44:16.505Z,76.44
2022-09-23T19:46:45.640Z,76.74
2022-09-23T19:49:14.100Z,76.93
2022-09-23T19:51:44.380Z,77.06
2022-09-23T19:54:21.011Z,77.17
2022-09-23T19:56:49.655Z,77.29
2022-09-23T19:59:19.197Z,77.26
2022-09-23T20:01:48.394Z,77.36
2022-09-23T20:04:17.019Z,77.36
2022-09-23T20:06:45.929Z,77.32
2022-09-23T20:09:15.349Z,77.40
2022-09-23T20:11:44.201Z,77.53
2022-09-23T20:14:12.897Z,77.53
2022-09-23T20:16:41.341Z,77.42
2022-09-23T20:19:11.496Z,77.31
2022-09-23T20:21:39.588Z,77.19
2022-09-23T20:24:09.525Z,77.18
2022-09-23T20:26:56.956Z,77.37
2022-09-23T20:29:24.926Z,77.35
2022-09-23T20:31:52.971Z,77.50
2022-09-23T20:34:21.574Z,77.65
2022-09-23T20:36:49.654Z,77.81
2022-09-23T20:39:17.625Z,77.88
2022-09-23T20:41:48.175Z,78.03
2022-09-23T20:44:16.376Z,77.95
2022-09-23T20:46:48.339Z,78.13
2022-09-23T20:49:17.996Z,78.28
2022-09-23T20:51:46.070Z,78.45
2022-09-23T20:54:14.080Z,78.47
2022-09-23T20:56:42.095Z,78.30
2022-09-23T20:59:14.826Z,78.22
2022-09-23T21:01:42.886Z,78.18
2022-09-23T21:04:11.069Z,78.25
2022-09-23T21:06:39.744Z,78.36
2022-09-23T21:09:08.088Z,77.97
2022-09-23T21:11:36.124Z,78.15
2022-09-23T21:14:04.238Z,77.93
2022-09-23T21:16:33.888Z,78.04
2022-09-23T21:19:03.921Z,78.09
2022-09-23T21:21:32.255Z,78.10
2022-09-23T21:24:31.337Z,77.84
2022-09-23T21:26:50.557Z,77.83
2022-09-23T21:29:19.102Z,77.92
2022-09-23T21:31:49.828Z,77.94
2022-09-23T21:34:18.038Z,77.96
2022-09-23T21:36:47.852Z,78.10
2022-09-23T21:39:16.078Z,77.89
2022-09-23T21:41:44.042Z,78.05
2022-09-23T21:44:12.017Z,77.96
2022-09-23T21:46:40.091Z,78.01
2022-09-23T21:49:09.439Z,77.96
2022-09-23T21:51:40.629Z,78.12
2022-09-23T21:54:12.753Z,78.11
2022-09-23T21:56:40.838Z,78.09
2022-09-23T21:59:08.862Z,78.05
2022-09-23T22:01:38.231Z,78.07
2022-09-23T22:04:09.300Z,78.28
2022-09-23T22:06:40.352Z,78.15
2022-09-23T22:09:10.033Z,78.02
2022-09-23T22:11:56.767Z,78.01
2022-09-23T22:14:25.977Z,78.38
2022-09-23T22:16:57.500Z,78.39
2022-09-23T22:19:27.323Z,78.31
2022-09-23T22:21:57.099Z,78.26
2022-09-23T22:24:25.216Z,78.36
2022-09-23T22:26:53.637Z,78.46
2022-09-23T22:29:39.466Z,78.50
2022-09-23T22:32:29.410Z,78.63
2022-09-23T22:34:57.685Z,78.59
2022-09-23T22:37:30.280Z,78.75
2022-09-23T22:39:58.353Z,78.77
2022-09-23T22:42:27.656Z,78.82
2022-09-23T22:44:56.328Z,78.82
2022-09-23T22:47:24.570Z,78.91
2022-09-23T22:49:55.331Z,79.01
2022-09-23T22:52:24.402Z,79.16
2022-09-23T22:54:53.970Z,79.17
2022-09-23T22:57:21.968Z,79.08
2022-09-23T22:59:49.968Z,79.28
2022-09-23T23:02:19.507Z,79.25
2022-09-23T23:04:47.847Z,79.48
2022-09-23T23:07:20.799Z,79.31
2022-09-23T23:09:49.823Z,79.43
2022-09-23T23:12:20.249Z,79.47
2022-09-23T23:14:49.358Z,79.54
2022-09-23T23:17:18.614Z,79.60
2022-09-23T23:19:46.735Z,79.57
2022-09-23T23:22:14.691Z,79.63
2022-09-23T23:24:43.024Z,79.71
2022-09-23T23:27:11.147Z,79.79
2022-09-23T23:29:40.364Z,79.81
2022-09-23T23:32:09.693Z,79.94
2022-09-23T23:34:37.704Z,79.88
2022-09-23T23:37:05.720Z,80.01
2022-09-23T23:39:34.752Z,79.97
2022-09-23T23:42:03.657Z,80.03
2022-09-23T23:44:34.352Z,80.25
2022-09-23T23:47:04.366Z,80.38
2022-09-23T23:49:32.371Z,80.59
2022-09-23T23:52:00.362Z,80.59
2022-09-23T23:54:28.331Z,80.85
2022-09-23T23:56:56.287Z,81.04
2022-09-23T23:59:24.528Z,81.24
